createdAt,value
2024-02-04T07:38:56.178Z,98312.59
2024-02-04T07:41:23.185Z,98314.22
2024-02-04T07:43:50.166Z,98305.03
2024-02-04T07:46:16.901Z,98320.63
2024-02-04T07:48:43.880Z,98317.28
2024-02-04T07:51:10.733Z,98311.16
2024-02-04T07:53:37.650Z,98302.22
2024-02-04T07:56:05.570Z,98304.44
2024-02-04T07:58:32.371Z,98292.38
2024-02-04T08:00:59.216Z,98319.00
2024-02-04T08:03:26.104Z,98311.41
2024-02-04T08:05:53.159Z,98307.97
2024-02-04T08:08:20.325Z,98306.22
2024-02-04T08:10:47.118Z,98317.47
2024-02-04T08:13:14.269Z,98282.38
2024-02-04T08:15:41.509Z,98296.25
2024-02-04T08:18:08.802Z,98295.94
2024-02-04T08:20:35.843Z,98303.38
2024-02-04T08:23:02.692Z,98297.59
2024-02-04T08:25:29.420Z,98287.03
2024-02-04T08:27:59.209Z,98282.78
2024-02-04T08:30:26.597Z,98276.41
2024-02-04T08:32:53.589Z,98294.97
2024-02-04T08:35:20.400Z,98306.44
2024-02-04T08:37:47.048Z,98301.03
2024-02-04T08:40:14.436Z,98277.22
2024-02-04T08:42:41.507Z,98289.81
2024-02-04T08:45:08.750Z,98294.78
2024-02-04T08:47:35.568Z,98279.75
2024-02-04T08:50:02.454Z,98299.84
2024-02-04T08:52:29.633Z,98305.41
2024-02-04T08:54:56.428Z,98305.97
2024-02-04T08:57:23.195Z,98287.41
2024-02-04T08:59:49.911Z,98289.69
2024-02-04T09:02:16.537Z,98286.56
2024-02-04T09:04:43.319Z,98280.09
2024-02-04T09:07:10.228Z,98302.50
2024-02-04T09:09:37.237Z,98303.28
2024-02-04T09:12:04.197Z,98303.63
2024-02-04T09:14:31.068Z,98298.22
2024-02-04T09:16:57.848Z,98301.88
2024-02-04T09:19:25.700Z,98296.16
2024-02-04T09:21:57.158Z,98313.03
2024-02-04T09:24:23.937Z,98308.53
2024-02-04T09:26:50.606Z,98313.88
2024-02-04T09:29:17.580Z,98327.28
2024-02-04T09:31:44.408Z,98312.44
2024-02-04T09:34:11.469Z,98312.69
2024-02-04T09:36:38.419Z,98316.13
2024-02-04T09:39:05.309Z,98315.75
2024-02-04T09:41:32.005Z,98308.41
2024-02-04T09:43:59.571Z,98291.16
2024-02-04T09:46:26.522Z,98310.22
2024-02-04T09:48:56.360Z,98310.66
2024-02-04T09:51:23.874Z,98290.59
2024-02-04T09:53:54.815Z,98289.19
2024-02-04T09:56:26.596Z,98289.16
2024-02-04T09:58:54.340Z,98274.72
2024-02-04T10:01:23.873Z,98290.88
2024-02-04T10:03:50.976Z,98280.78
2024-02-04T10:06:18.143Z,98309.03
2024-02-04T10:08:45.219Z,98290.28
2024-02-04T10:11:12.190Z,98301.97
2024-02-04T10:13:50.616Z,98301.97
2024-02-04T10:16:18.297Z,98312.06
2024-02-04T10:18:46.131Z,98301.53
2024-02-04T10:21:20.683Z,98290.28
2024-02-04T10:23:51.326Z,98275.50
2024-02-04T10:26:21.012Z,98256.69
2024-02-04T10:28:48.860Z,98270.94
2024-02-04T10:31:16.388Z,98251.56
2024-02-04T10:33:43.364Z,98265.66
2024-02-04T10:36:10.613Z,98249.75
2024-02-04T10:38:37.264Z,98240.84
2024-02-04T10:41:04.244Z,98249.28
2024-02-04T10:43:36.450Z,98235.41
2024-02-04T10:46:11.858Z,98253.78
2024-02-04T10:48:46.135Z,98262.06
2024-02-04T10:51:17.274Z,98258.59
2024-02-04T10:53:45.340Z,98260.13
2024-02-04T10:56:24.306Z,98271.13
2024-02-04T10:58:53.013Z,98250.72
2024-02-04T11:01:19.965Z,98271.09
2024-02-04T11:03:48.405Z,98251.28
2024-02-04T11:06:14.987Z,98251.94
2024-02-04T11:08:42.083Z,98233.53
2024-02-04T11:11:08.774Z,98245.56
2024-02-04T11:13:37.850Z,98227.03
2024-02-04T11:16:11.093Z,98223.50
2024-02-04T11:18:59.619Z,98209.44
2024-02-04T11:21:45.676Z,98226.31
2024-02-04T11:24:43.543Z,98214.13
2024-02-04T11:27:10.709Z,98215.63
2024-02-04T11:29:37.609Z,98224.50
2024-02-04T11:32:04.960Z,98215.16
2024-02-04T11:34:32.091Z,98237.97
2024-02-04T11:37:00.325Z,98219.25
2024-02-04T11:39:27.829Z,98223.72
2024-02-04T11:41:55.049Z,98229.69
2024-02-04T11:44:26.267Z,98215.94
2024-02-04T11:46:53.699Z,98215.44
2024-02-04T11:49:23.379Z,98211.78
2024-02-04T11:51:52.783Z,98208.16
2024-02-04T11:54:21.791Z,98203.84
2024-02-04T11:56:55.106Z,98186.25
2024-02-04T11:59:23.836Z,98200.69
2024-02-04T12:01:54.975Z,98193.09
2024-02-04T12:04:23.015Z,98187.75
2024-02-04T12:06:51.677Z,98193.34
2024-02-04T12:09:23.516Z,98166.47
2024-02-04T12:11:50.309Z,98179.22
2024-02-04T12:14:19.764Z,98180.63
2024-02-04T12:16:46.661Z,98149.16
2024-02-04T12:19:13.421Z,98163.50
2024-02-04T12:21:40.518Z,98124.72
2024-02-04T12:24:08.146Z,98143.41
2024-02-04T12:26:35.112Z,98129.81
2024-02-04T12:29:01.880Z,98119.47
2024-02-04T12:31:32.800Z,98127.56
2024-02-04T12:34:02.935Z,98119.56
2024-02-04T12:36:31.880Z,98123.69
2024-02-04T12:38:59.221Z,98136.34
2024-02-04T12:41:26.970Z,98125.97
2024-02-04T12:43:56.782Z,98105.63
2024-02-04T12:46:24.046Z,98111.56
2024-02-04T12:48:55.258Z,98130.06
2024-02-04T12:51:30.099Z,98120.22
2024-02-04T12:54:14.137Z,98129.13
2024-02-04T12:56:47.822Z,98108.38
2024-02-04T12:59:35.613Z,98109.34
2024-02-04T13:02:06.045Z,98107.59
2024-02-04T13:04:36.865Z,98132.13
2024-02-04T13:07:08.255Z,98130.50
2024-02-04T13:09:35.080Z,98131.19
2024-02-04T13:12:11.416Z,98134.78
2024-02-04T13:14:39.012Z,98115.66
2024-02-04T13:17:06.871Z,98110.66
2024-02-04T13:19:38.242Z,98122.34
2024-02-04T13:22:06.309Z,98133.47
2024-02-04T13:24:33.925Z,98120.22
2024-02-04T13:27:01.914Z,98108.03
2024-02-04T13:29:29.078Z,98113.56
2024-02-04T13:31:56.914Z,98122.47
2024-02-04T13:34:24.167Z,98115.69
2024-02-04T13:36:52.428Z,98111.97
2024-02-04T13:39:19.303Z,98116.94
2024-02-04T13:41:46.222Z,98102.44
2024-02-04T13:44:13.040Z,98102.09
2024-02-04T13:46:43.963Z,98099.03
2024-02-04T13:49:13.431Z,98094.91
2024-02-04T13:51:44.657Z,98095.88
2024-02-04T13:54:16.638Z,98092.50
2024-02-04T13:56:44.210Z,98096.41
2024-02-04T13:59:10.906Z,98095.16
2024-02-04T14:01:37.651Z,98093.69
2024-02-04T14:04:04.779Z,98080.63
2024-02-04T14:06:31.553Z,98086.00
2024-02-04T14:08:58.258Z,98064.72
2024-02-04T14:11:24.871Z,98072.59
2024-02-04T14:13:51.518Z,98079.72
2024-02-04T14:16:18.319Z,98097.34
2024-02-04T14:18:47.461Z,98098.28
2024-02-04T14:21:17.567Z,98101.19
2024-02-04T14:23:44.554Z,98107.28
2024-02-04T14:26:21.742Z,98109.91
2024-02-04T14:28:49.480Z,98116.91
2024-02-04T14:31:16.354Z,98100.69
2024-02-04T14:33:43.771Z,98101.31
2024-02-04T14:36:11.411Z,98128.69
2024-02-04T14:38:39.974Z,98135.31
2024-02-04T14:41:07.133Z,98119.47
2024-02-04T14:43:34.554Z,98122.97
2024-02-04T14:46:01.461Z,98144.75
2024-02-04T14:48:28.632Z,98119.72
2024-02-04T14:50:57.635Z,98119.53
2024-02-04T14:53:24.342Z,98141.56
2024-02-04T14:55:51.053Z,98153.84
2024-02-04T14:58:17.827Z,98146.63
2024-02-04T15:00:44.772Z,98135.88
2024-02-04T15:03:11.944Z,98144.53
2024-02-04T15:05:40.162Z,98154.41
2024-02-04T15:08:07.337Z,98146.28
2024-02-04T15:10:34.188Z,98162.22
2024-02-04T15:13:01.553Z,98138.06
2024-02-04T15:15:28.697Z,98147.16
2024-02-04T15:17:55.700Z,98129.34
2024-02-04T15:20:25.562Z,98162.94
2024-02-04T15:22:52.790Z,98137.47
2024-02-04T15:25:21.282Z,98145.09
2024-02-04T15:27:49.327Z,98133.75
2024-02-04T15:30:17.832Z,98127.22
2024-02-04T15:32:45.854Z,98138.31
2024-02-04T15:35:13.605Z,98126.31
2024-02-04T15:37:40.456Z,98152.09
2024-02-04T15:40:07.718Z,98150.41
2024-02-04T15:42:34.949Z,98146.84
2024-02-04T15:45:01.688Z,98131.13
2024-02-04T15:47:31.132Z,98119.13
2024-02-04T15:49:58.068Z,98159.66
2024-02-04T15:52:25.193Z,98127.13
2024-02-04T15:54:52.728Z,98143.31
2024-02-04T15:57:21.491Z,98137.97
2024-02-04T15:59:53.978Z,98110.22
2024-02-04T16:02:21.025Z,98129.84
2024-02-04T16:04:47.809Z,98137.63
2024-02-04T16:07:16.337Z,98125.84
2024-02-04T16:09:46.666Z,98132.53
2024-02-04T16:12:21.662Z,98125.50
2024-02-04T16:14:52.161Z,98124.16
2024-02-04T16:17:22.208Z,98113.69
2024-02-04T16:19:50.511Z,98112.03
2024-02-04T16:22:18.538Z,98120.31
2024-02-04T16:24:45.760Z,98107.59
2024-02-04T16:27:12.629Z,98118.03
2024-02-04T16:29:39.307Z,98130.66
2024-02-04T16:32:05.978Z,98109.06
2024-02-04T16:34:35.823Z,98139.38
2024-02-04T16:37:03.741Z,98151.50
2024-02-04T16:39:30.676Z,98151.78
2024-02-04T16:41:57.316Z,98135.75
2024-02-04T16:44:24.434Z,98134.13
2024-02-04T16:46:51.183Z,98124.38
2024-02-04T16:49:20.623Z,98130.50
2024-02-04T16:51:48.193Z,98135.44
2024-02-04T16:54:16.432Z,98129.97
2024-02-04T16:56:43.186Z,98126.53
2024-02-04T16:59:10.489Z,98122.72
2024-02-04T17:01:37.377Z,98135.50
2024-02-04T17:04:05.510Z,98106.09
2024-02-04T17:06:32.816Z,98115.09
2024-02-04T17:09:02.722Z,98132.88
2024-02-04T17:11:30.397Z,98124.78
2024-02-04T17:13:58.036Z,98123.34
2024-02-04T17:16:39.968Z,98139.28
2024-02-04T17:19:34.492Z,98138.59
2024-02-04T17:22:16.073Z,98123.53
2024-02-04T17:24:51.154Z,98142.41
2024-02-04T17:27:19.761Z,98121.63
2024-02-04T17:29:47.157Z,98128.22
2024-02-04T17:32:15.363Z,98129.88
2024-02-04T17:34:42.938Z,98111.16
2024-02-04T17:37:10.313Z,98108.59
2024-02-04T17:39:38.771Z,98107.22
2024-02-04T17:42:06.891Z,98108.31
2024-02-04T17:44:34.941Z,98119.72
2024-02-04T17:47:02.686Z,98094.81
2024-02-04T17:49:29.545Z,98098.50
2024-02-04T17:51:56.501Z,98113.00
2024-02-04T17:54:31.295Z,98090.81
2024-02-04T17:57:10.347Z,98092.84
2024-02-04T18:00:03.161Z,98078.44
2024-02-04T18:02:41.769Z,98077.66
2024-02-04T18:05:13.711Z,98067.00
2024-02-04T18:07:42.596Z,98087.44
2024-02-04T18:10:09.823Z,98103.88
2024-02-04T18:12:36.841Z,98080.66
2024-02-04T18:15:06.304Z,98093.94
2024-02-04T18:17:34.332Z,98086.97
2024-02-04T18:23:16.448Z,98118.03
2024-02-04T18:25:50.719Z,98071.50
2024-02-04T18:28:17.381Z,98097.66
2024-02-04T18:30:45.396Z,98091.31
2024-02-04T18:33:12.152Z,98114.53
2024-02-04T18:35:39.643Z,98115.16
2024-02-04T18:42:39.916Z,98097.81
2024-02-04T18:45:07.660Z,98107.13
2024-02-04T18:47:34.492Z,98104.28
2024-02-04T18:50:03.037Z,98093.31
2024-02-04T18:52:59.978Z,98104.44
2024-02-04T18:55:29.713Z,98103.91
2024-02-04T19:03:49.692Z,98096.78
2024-02-04T19:06:29.983Z,98112.88
2024-02-04T19:08:56.788Z,98095.13
2024-02-04T19:11:23.568Z,98077.50
2024-02-04T19:13:51.139Z,98092.69
2024-02-04T19:16:24.846Z,98077.41
2024-02-04T19:18:52.186Z,98069.22
2024-02-04T19:21:19.403Z,98059.56
2024-02-04T19:23:49.115Z,98065.84
2024-02-04T19:26:16.535Z,98054.16
2024-02-04T19:28:43.174Z,98079.06
2024-02-04T19:31:13.241Z,98077.31
2024-02-04T19:33:40.716Z,98085.31
2024-02-04T19:36:08.346Z,98064.91
2024-02-04T19:38:35.965Z,98059.66
2024-02-04T19:41:02.803Z,98081.16
2024-02-04T19:43:32.319Z,98043.28
2024-02-04T19:45:59.787Z,98056.69
2024-02-04T19:48:27.612Z,98075.97
2024-02-04T19:50:54.594Z,98084.72
2024-02-04T19:53:21.402Z,98099.91
2024-02-04T19:55:48.248Z,98078.44
2024-02-04T19:58:35.472Z,98084.72
2024-02-04T20:01:02.190Z,98077.50
2024-02-04T20:03:29.057Z,98062.78
2024-02-04T20:06:03.271Z,98061.81
2024-02-04T20:08:32.241Z,98076.25
2024-02-04T20:10:58.949Z,98079.94
2024-02-04T20:13:27.941Z,98082.59
2024-02-04T20:15:55.618Z,98079.22
2024-02-04T20:18:22.297Z,98094.13
2024-02-04T20:20:49.261Z,98081.34
2024-02-04T20:23:16.798Z,98082.38
2024-02-04T20:25:44.493Z,98086.91
2024-02-04T20:28:12.215Z,98095.69
2024-02-04T20:30:39.136Z,98086.59
2024-02-04T20:33:06.013Z,98097.66
2024-02-04T20:35:32.811Z,98074.22
2024-02-04T20:38:02.608Z,98066.50
2024-02-04T20:40:29.713Z,98081.75
2024-02-04T20:42:56.619Z,98067.13
2024-02-04T20:45:23.460Z,98067.91
2024-02-04T20:47:50.614Z,98055.66
2024-02-04T20:50:18.145Z,98046.13
2024-02-04T20:52:45.495Z,98060.34
2024-02-04T20:55:13.152Z,98055.94
2024-02-04T20:57:40.509Z,98058.47
2024-02-04T21:00:08.568Z,98060.16
2024-02-04T21:02:35.810Z,98055.78
2024-02-04T21:05:02.837Z,98064.16
2024-02-04T21:07:29.928Z,98039.06
2024-02-04T21:09:59.111Z,98041.91
2024-02-04T21:12:25.953Z,98049.00
2024-02-04T21:14:52.694Z,98050.72
2024-02-04T21:17:21.510Z,98054.19
2024-02-04T21:19:50.686Z,98039.78
2024-02-04T21:22:17.666Z,98033.72
2024-02-04T21:24:45.534Z,98033.94
2024-02-04T21:27:12.552Z,98050.72
2024-02-04T21:29:39.637Z,98034.84
2024-02-04T21:32:06.828Z,98039.16
2024-02-04T21:34:34.994Z,98046.25
2024-02-04T21:37:01.785Z,98042.63
2024-02-04T21:39:30.982Z,98036.53
2024-02-04T21:42:02.654Z,98025.00
2024-02-04T21:44:29.411Z,98019.00
2024-02-04T21:46:56.658Z,98022.38
2024-02-04T21:49:23.564Z,98013.66
2024-02-04T21:51:51.294Z,98023.31
2024-02-04T21:54:17.948Z,98016.84
2024-02-04T21:56:44.630Z,98007.19
2024-02-04T21:59:11.776Z,98002.91
2024-02-04T22:01:38.598Z,97996.13
2024-02-04T22:04:05.465Z,98007.31
2024-02-04T22:06:32.205Z,98001.94
2024-02-04T22:08:58.831Z,98013.59
2024-02-04T22:11:27.894Z,97981.69
2024-02-04T22:13:55.314Z,98009.81
2024-02-04T22:16:22.196Z,98010.72
2024-02-04T22:18:49.038Z,97996.56
2024-02-04T22:21:20.653Z,98010.88
2024-02-04T22:23:47.789Z,98007.91
2024-02-04T22:26:14.857Z,98000.88
2024-02-04T22:28:41.497Z,98020.44
2024-02-04T22:31:11.559Z,98013.91
2024-02-04T22:33:38.570Z,98007.84
2024-02-04T22:36:06.056Z,98006.91
2024-02-04T22:38:34.044Z,98007.56
2024-02-04T22:41:01.167Z,98021.78
2024-02-04T22:43:28.346Z,98010.47
2024-02-04T22:45:55.338Z,98011.28
2024-02-04T22:48:22.291Z,98013.66
2024-02-04T22:50:49.297Z,98012.56
2024-02-04T22:53:16.265Z,98037.28
2024-02-04T22:55:43.058Z,98045.41
2024-02-04T22:58:09.928Z,98038.38
2024-02-04T23:00:39.708Z,98034.16
2024-02-04T23:03:07.320Z,98031.38
2024-02-04T23:05:34.129Z,98024.34
2024-02-04T23:08:01.049Z,98018.97
2024-02-04T23:10:30.521Z,97996.19
2024-02-04T23:12:58.325Z,98001.44
2024-02-04T23:15:26.011Z,98005.78
2024-02-04T23:17:53.165Z,98004.81
2024-02-04T23:20:21.240Z,98019.00
2024-02-04T23:22:48.323Z,98005.84
2024-02-04T23:25:15.486Z,97977.41
2024-02-04T23:27:42.298Z,97990.53
2024-02-04T23:30:09.954Z,97977.03
2024-02-04T23:32:36.623Z,97976.13
2024-02-04T23:35:05.323Z,97978.56
2024-02-04T23:37:34.867Z,97963.50
2024-02-04T23:40:02.099Z,97991.19
2024-02-04T23:42:29.021Z,97982.47
2024-02-04T23:44:56.150Z,97962.59
2024-02-04T23:47:22.978Z,97958.16
2024-02-04T23:49:49.989Z,97960.88
2024-02-04T23:52:18.489Z,97967.09
2024-02-04T23:54:45.529Z,97977.59
2024-02-04T23:57:12.284Z,97956.94
2024-02-04T23:59:39.109Z,97978.44
